sensor_id;sensor_type;location;lat;lon;timestamp;temperature;humidity
68922;DHT22;55959;51.244;5.724;2024-03-08T00:02:14;8.70;57.40
68922;DHT22;55959;51.244;5.724;2024-03-08T00:04:41;8.70;57.50
68922;DHT22;55959;51.244;5.724;2024-03-08T00:07:07;8.70;57.30
68922;DHT22;55959;51.244;5.724;2024-03-08T00:09:33;8.60;57.20
68922;DHT22;55959;51.244;5.724;2024-03-08T00:11:59;8.60;57.20
68922;DHT22;55959;51.244;5.724;2024-03-08T00:14:25;8.60;57.30
68922;DHT22;55959;51.244;5.724;2024-03-08T00:16:50;8.60;57.40
68922;DHT22;55959;51.244;5.724;2024-03-08T00:19:18;8.50;57.20
68922;DHT22;55959;51.244;5.724;2024-03-08T00:21:43;8.50;57.20
68922;DHT22;55959;51.244;5.724;2024-03-08T00:24:10;8.40;57.30
68922;DHT22;55959;51.244;5.724;2024-03-08T00:26:36;8.40;57.90
68922;DHT22;55959;51.244;5.724;2024-03-08T00:29:01;8.40;57.30
68922;DHT22;55959;51.244;5.724;2024-03-08T00:31:28;8.40;57.30
68922;DHT22;55959;51.244;5.724;2024-03-08T00:33:56;8.30;57.30
68922;DHT22;55959;51.244;5.724;2024-03-08T00:36:23;8.30;57.40
68922;DHT22;55959;51.244;5.724;2024-03-08T00:38:48;8.30;57.40
68922;DHT22;55959;51.244;5.724;2024-03-08T00:41:14;8.30;57.40
68922;DHT22;55959;51.244;5.724;2024-03-08T00:43:40;8.30;57.40
68922;DHT22;55959;51.244;5.724;2024-03-08T00:46:06;8.30;57.40
68922;DHT22;55959;51.244;5.724;2024-03-08T00:48:31;8.30;57.50
68922;DHT22;55959;51.244;5.724;2024-03-08T00:50:57;8.20;57.40
68922;DHT22;55959;51.244;5.724;2024-03-08T00:53:23;8.20;57.40
68922;DHT22;55959;51.244;5.724;2024-03-08T00:55:49;8.20;57.40
68922;DHT22;55959;51.244;5.724;2024-03-08T00:58:15;8.20;57.40
68922;DHT22;55959;51.244;5.724;2024-03-08T01:00:40;8.20;57.40
68922;DHT22;55959;51.244;5.724;2024-03-08T01:03:06;8.20;58.10
68922;DHT22;55959;51.244;5.724;2024-03-08T01:05:33;8.10;57.50
68922;DHT22;55959;51.244;5.724;2024-03-08T01:08:00;8.10;57.60
68922;DHT22;55959;51.244;5.724;2024-03-08T01:10:28;8.10;57.60
68922;DHT22;55959;51.244;5.724;2024-03-08T01:12:54;8.10;57.50
68922;DHT22;55959;51.244;5.724;2024-03-08T01:15:22;8.00;57.60
68922;DHT22;55959;51.244;5.724;2024-03-08T01:17:48;8.00;57.60
68922;DHT22;55959;51.244;5.724;2024-03-08T01:20:15;8.00;57.70
68922;DHT22;55959;51.244;5.724;2024-03-08T01:22:41;8.00;57.70
68922;DHT22;55959;51.244;5.724;2024-03-08T01:25:07;8.00;57.60
68922;DHT22;55959;51.244;5.724;2024-03-08T01:27:34;8.00;57.60
68922;DHT22;55959;51.244;5.724;2024-03-08T01:30:02;7.90;57.60
68922;DHT22;55959;51.244;5.724;2024-03-08T01:32:29;7.90;57.70
68922;DHT22;55959;51.244;5.724;2024-03-08T01:34:54;7.90;57.80
68922;DHT22;55959;51.244;5.724;2024-03-08T01:37:20;7.90;57.80
68922;DHT22;55959;51.244;5.724;2024-03-08T01:39:46;7.90;57.80
68922;DHT22;55959;51.244;5.724;2024-03-08T01:42:12;7.80;57.90
68922;DHT22;55959;51.244;5.724;2024-03-08T01:44:40;7.80;58.00
68922;DHT22;55959;51.244;5.724;2024-03-08T01:47:06;7.80;58.00
68922;DHT22;55959;51.244;5.724;2024-03-08T01:49:32;7.80;58.00
68922;DHT22;55959;51.244;5.724;2024-03-08T01:51:59;7.80;58.00
68922;DHT22;55959;51.244;5.724;2024-03-08T01:54:25;7.70;58.00
68922;DHT22;55959;51.244;5.724;2024-03-08T01:56:52;7.70;58.00
68922;DHT22;55959;51.244;5.724;2024-03-08T01:59:19;7.70;58.10
68922;DHT22;55959;51.244;5.724;2024-03-08T02:01:45;7.70;58.10
68922;DHT22;55959;51.244;5.724;2024-03-08T02:04:10;7.70;58.20
68922;DHT22;55959;51.244;5.724;2024-03-08T02:06:36;7.70;58.30
68922;DHT22;55959;51.244;5.724;2024-03-08T02:09:03;7.60;58.20
68922;DHT22;55959;51.244;5.724;2024-03-08T02:11:33;7.60;58.30
68922;DHT22;55959;51.244;5.724;2024-03-08T02:14:00;7.50;58.30
68922;DHT22;55959;51.244;5.724;2024-03-08T02:16:25;7.50;58.40
68922;DHT22;55959;51.244;5.724;2024-03-08T02:18:51;7.50;58.50
68922;DHT22;55959;51.244;5.724;2024-03-08T02:21:17;7.50;58.50
68922;DHT22;55959;51.244;5.724;2024-03-08T02:23:43;7.40;58.50
68922;DHT22;55959;51.244;5.724;2024-03-08T02:26:09;7.40;58.60
68922;DHT22;55959;51.244;5.724;2024-03-08T02:28:36;7.40;58.60
68922;DHT22;55959;51.244;5.724;2024-03-08T02:31:02;7.40;58.70
68922;DHT22;55959;51.244;5.724;2024-03-08T02:33:28;7.30;58.70
68922;DHT22;55959;51.244;5.724;2024-03-08T02:35:54;7.30;58.80
68922;DHT22;55959;51.244;5.724;2024-03-08T02:38:22;7.30;58.80
68922;DHT22;55959;51.244;5.724;2024-03-08T02:40:49;7.20;58.80
68922;DHT22;55959;51.244;5.724;2024-03-08T02:43:17;7.20;58.90
68922;DHT22;55959;51.244;5.724;2024-03-08T02:45:44;7.20;59.00
68922;DHT22;55959;51.244;5.724;2024-03-08T02:48:11;7.10;59.00
68922;DHT22;55959;51.244;5.724;2024-03-08T02:50:38;7.10;59.00
68922;DHT22;55959;51.244;5.724;2024-03-08T02:53:06;7.10;59.10
68922;DHT22;55959;51.244;5.724;2024-03-08T02:55:32;7.10;59.20
68922;DHT22;55959;51.244;5.724;2024-03-08T02:58:01;7.10;59.20
68922;DHT22;55959;51.244;5.724;2024-03-08T03:00:29;7.10;59.30
68922;DHT22;55959;51.244;5.724;2024-03-08T03:02:56;7.00;59.30
68922;DHT22;55959;51.244;5.724;2024-03-08T03:05:23;7.00;59.40
68922;DHT22;55959;51.244;5.724;2024-03-08T03:07:49;7.00;59.40
68922;DHT22;55959;51.244;5.724;2024-03-08T03:10:19;7.00;59.50
68922;DHT22;55959;51.244;5.724;2024-03-08T03:12:47;6.90;59.40
68922;DHT22;55959;51.244;5.724;2024-03-08T03:15:14;6.90;59.50
68922;DHT22;55959;51.244;5.724;2024-03-08T03:17:48;6.90;59.50
68922;DHT22;55959;51.244;5.724;2024-03-08T03:20:18;6.90;60.30
68922;DHT22;55959;51.244;5.724;2024-03-08T03:22:58;6.80;59.60
68922;DHT22;55959;51.244;5.724;2024-03-08T03:25:26;6.80;59.60
68922;DHT22;55959;51.244;5.724;2024-03-08T03:27:58;6.80;59.70
68922;DHT22;55959;51.244;5.724;2024-03-08T03:30:24;6.80;59.70
68922;DHT22;55959;51.244;5.724;2024-03-08T03:32:52;6.80;59.80
68922;DHT22;55959;51.244;5.724;2024-03-08T03:35:20;6.70;59.80
68922;DHT22;55959;51.244;5.724;2024-03-08T03:37:47;6.70;59.90
68922;DHT22;55959;51.244;5.724;2024-03-08T03:40:35;6.70;59.90
68922;DHT22;55959;51.244;5.724;2024-03-08T03:43:10;6.70;59.90
68922;DHT22;55959;51.244;5.724;2024-03-08T03:45:36;6.70;60.00
68922;DHT22;55959;51.244;5.724;2024-03-08T03:48:06;6.60;60.00
68922;DHT22;55959;51.244;5.724;2024-03-08T03:50:34;6.60;60.10
68922;DHT22;55959;51.244;5.724;2024-03-08T03:53:00;6.60;60.10
68922;DHT22;55959;51.244;5.724;2024-03-08T03:55:28;6.60;60.20
68922;DHT22;55959;51.244;5.724;2024-03-08T03:57:54;6.60;60.30
68922;DHT22;55959;51.244;5.724;2024-03-08T04:00:20;6.50;60.30
68922;DHT22;55959;51.244;5.724;2024-03-08T04:02:46;6.50;60.40
68922;DHT22;55959;51.244;5.724;2024-03-08T04:05:14;6.50;60.40
68922;DHT22;55959;51.244;5.724;2024-03-08T04:07:40;6.50;60.50
68922;DHT22;55959;51.244;5.724;2024-03-08T04:10:08;6.50;60.50
68922;DHT22;55959;51.244;5.724;2024-03-08T04:12:34;6.50;60.50
68922;DHT22;55959;51.244;5.724;2024-03-08T04:15:00;6.40;60.50
68922;DHT22;55959;51.244;5.724;2024-03-08T04:17:26;6.40;60.60
68922;DHT22;55959;51.244;5.724;2024-03-08T04:19:53;6.40;60.60
68922;DHT22;55959;51.244;5.724;2024-03-08T04:22:19;6.40;60.70
68922;DHT22;55959;51.244;5.724;2024-03-08T04:24:45;6.40;60.70
68922;DHT22;55959;51.244;5.724;2024-03-08T04:27:11;6.40;60.80
68922;DHT22;55959;51.244;5.724;2024-03-08T04:29:37;6.40;60.80
68922;DHT22;55959;51.244;5.724;2024-03-08T04:32:04;6.40;60.90
68922;DHT22;55959;51.244;5.724;2024-03-08T04:34:32;6.40;60.90
68922;DHT22;55959;51.244;5.724;2024-03-08T04:37:00;6.30;60.90
68922;DHT22;55959;51.244;5.724;2024-03-08T04:39:27;6.30;60.90
68922;DHT22;55959;51.244;5.724;2024-03-08T04:42:00;6.30;61.00
68922;DHT22;55959;51.244;5.724;2024-03-08T04:44:36;6.30;61.10
68922;DHT22;55959;51.244;5.724;2024-03-08T04:47:03;6.20;61.20
68922;DHT22;55959;51.244;5.724;2024-03-08T04:49:34;6.20;61.30
68922;DHT22;55959;51.244;5.724;2024-03-08T04:52:03;6.20;61.40
68922;DHT22;55959;51.244;5.724;2024-03-08T04:54:30;6.20;61.50
68922;DHT22;55959;51.244;5.724;2024-03-08T04:56:56;6.20;61.50
68922;DHT22;55959;51.244;5.724;2024-03-08T04:59:22;6.10;61.60
68922;DHT22;55959;51.244;5.724;2024-03-08T05:01:49;6.10;61.60
68922;DHT22;55959;51.244;5.724;2024-03-08T05:04:15;6.10;61.70
68922;DHT22;55959;51.244;5.724;2024-03-08T05:06:40;6.10;61.70
68922;DHT22;55959;51.244;5.724;2024-03-08T05:09:06;6.10;61.70
68922;DHT22;55959;51.244;5.724;2024-03-08T05:11:45;6.10;61.80
68922;DHT22;55959;51.244;5.724;2024-03-08T05:14:15;6.10;61.90
68922;DHT22;55959;51.244;5.724;2024-03-08T05:16:48;6.10;61.90
68922;DHT22;55959;51.244;5.724;2024-03-08T05:19:17;6.10;62.00
68922;DHT22;55959;51.244;5.724;2024-03-08T05:21:45;6.00;62.10
68922;DHT22;55959;51.244;5.724;2024-03-08T05:24:14;6.10;62.10
68922;DHT22;55959;51.244;5.724;2024-03-08T05:26:41;6.00;62.10
68922;DHT22;55959;51.244;5.724;2024-03-08T05:29:08;6.00;62.10
68922;DHT22;55959;51.244;5.724;2024-03-08T05:31:50;6.00;62.10
68922;DHT22;55959;51.244;5.724;2024-03-08T05:34:18;6.00;62.30
68922;DHT22;55959;51.244;5.724;2024-03-08T05:36:45;6.00;62.20
68922;DHT22;55959;51.244;5.724;2024-03-08T05:39:15;6.00;62.30
68922;DHT22;55959;51.244;5.724;2024-03-08T05:41:43;6.00;62.40
68922;DHT22;55959;51.244;5.724;2024-03-08T05:44:09;5.90;62.30
68922;DHT22;55959;51.244;5.724;2024-03-08T05:46:36;5.90;62.40
68922;DHT22;55959;51.244;5.724;2024-03-08T05:49:03;5.90;62.40
68922;DHT22;55959;51.244;5.724;2024-03-08T05:51:32;5.90;62.50
68922;DHT22;55959;51.244;5.724;2024-03-08T05:54:03;5.90;62.50
68922;DHT22;55959;51.244;5.724;2024-03-08T05:56:31;5.90;62.50
68922;DHT22;55959;51.244;5.724;2024-03-08T05:59:00;5.90;62.60
68922;DHT22;55959;51.244;5.724;2024-03-08T06:01:25;5.90;62.70
68922;DHT22;55959;51.244;5.724;2024-03-08T06:03:55;5.90;62.70
68922;DHT22;55959;51.244;5.724;2024-03-08T06:06:23;5.90;62.70
68922;DHT22;55959;51.244;5.724;2024-03-08T06:08:49;5.80;62.70
68922;DHT22;55959;51.244;5.724;2024-03-08T06:11:16;5.90;62.80
68922;DHT22;55959;51.244;5.724;2024-03-08T06:13:43;5.80;62.80
68922;DHT22;55959;51.244;5.724;2024-03-08T06:16:09;5.80;62.90
68922;DHT22;55959;51.244;5.724;2024-03-08T06:18:35;5.80;63.00
68922;DHT22;55959;51.244;5.724;2024-03-08T06:21:09;5.80;63.10
68922;DHT22;55959;51.244;5.724;2024-03-08T06:23:36;5.80;63.10
68922;DHT22;55959;51.244;5.724;2024-03-08T06:26:07;5.80;63.10
68922;DHT22;55959;51.244;5.724;2024-03-08T06:28:33;5.80;63.20
68922;DHT22;55959;51.244;5.724;2024-03-08T06:31:02;5.80;63.20
68922;DHT22;55959;51.244;5.724;2024-03-08T06:33:29;5.80;63.20
68922;DHT22;55959;51.244;5.724;2024-03-08T06:35:56;5.70;63.20
68922;DHT22;55959;51.244;5.724;2024-03-08T06:38:25;5.80;63.30
68922;DHT22;55959;51.244;5.724;2024-03-08T06:40:51;5.80;63.40
68922;DHT22;55959;51.244;5.724;2024-03-08T06:43:18;5.80;63.40
68922;DHT22;55959;51.244;5.724;2024-03-08T06:45:47;5.80;64.30
68922;DHT22;55959;51.244;5.724;2024-03-08T06:48:16;5.80;63.50
68922;DHT22;55959;51.244;5.724;2024-03-08T06:50:46;5.80;63.60
68922;DHT22;55959;51.244;5.724;2024-03-08T06:53:13;5.80;63.70
68922;DHT22;55959;51.244;5.724;2024-03-08T06:55:39;5.80;63.70
68922;DHT22;55959;51.244;5.724;2024-03-08T06:58:05;5.80;63.80
68922;DHT22;55959;51.244;5.724;2024-03-08T07:00:32;5.80;63.80
68922;DHT22;55959;51.244;5.724;2024-03-08T07:02:59;5.80;63.90
68922;DHT22;55959;51.244;5.724;2024-03-08T07:05:31;5.80;63.90
68922;DHT22;55959;51.244;5.724;2024-03-08T07:07:58;5.80;63.90
68922;DHT22;55959;51.244;5.724;2024-03-08T07:10:23;5.80;63.90
68922;DHT22;55959;51.244;5.724;2024-03-08T07:12:52;5.90;64.90
68922;DHT22;55959;51.244;5.724;2024-03-08T07:15:21;5.90;63.90
68922;DHT22;55959;51.244;5.724;2024-03-08T07:17:48;5.90;63.90
68922;DHT22;55959;51.244;5.724;2024-03-08T07:20:15;5.90;64.00
68922;DHT22;55959;51.244;5.724;2024-03-08T07:22:44;6.00;64.00
68922;DHT22;55959;51.244;5.724;2024-03-08T07:25:13;6.00;64.00
68922;DHT22;55959;51.244;5.724;2024-03-08T07:27:53;6.00;64.00
68922;DHT22;55959;51.244;5.724;2024-03-08T07:30:24;6.10;64.10
68922;DHT22;55959;51.244;5.724;2024-03-08T07:33:09;6.10;64.00
68922;DHT22;55959;51.244;5.724;2024-03-08T07:35:39;6.10;63.90
68922;DHT22;55959;51.244;5.724;2024-03-08T07:38:06;6.20;64.00
68922;DHT22;55959;51.244;5.724;2024-03-08T07:40:37;6.20;64.00
68922;DHT22;55959;51.244;5.724;2024-03-08T07:43:10;6.30;64.10
68922;DHT22;55959;51.244;5.724;2024-03-08T07:45:37;6.30;63.90
68922;DHT22;55959;51.244;5.724;2024-03-08T07:48:03;6.30;63.80
68922;DHT22;55959;51.244;5.724;2024-03-08T07:50:38;6.40;63.70
68922;DHT22;55959;51.244;5.724;2024-03-08T07:53:07;6.40;63.70
68922;DHT22;55959;51.244;5.724;2024-03-08T07:55:34;6.50;63.60
68922;DHT22;55959;51.244;5.724;2024-03-08T07:58:03;6.50;63.40
68922;DHT22;55959;51.244;5.724;2024-03-08T08:00:30;6.50;63.40
68922;DHT22;55959;51.244;5.724;2024-03-08T08:02:58;6.60;63.30
68922;DHT22;55959;51.244;5.724;2024-03-08T08:05:24;6.60;63.40
68922;DHT22;55959;51.244;5.724;2024-03-08T08:07:51;6.70;63.40
68922;DHT22;55959;51.244;5.724;2024-03-08T08:10:18;6.80;63.20
68922;DHT22;55959;51.244;5.724;2024-03-08T08:12:49;6.80;63.10
68922;DHT22;55959;51.244;5.724;2024-03-08T08:15:15;6.90;63.00
68922;DHT22;55959;51.244;5.724;2024-03-08T08:17:42;6.90;62.90
68922;DHT22;55959;51.244;5.724;2024-03-08T08:20:09;7.00;62.90
68922;DHT22;55959;51.244;5.724;2024-03-08T08:22:39;7.10;62.80
68922;DHT22;55959;51.244;5.724;2024-03-08T08:25:06;7.10;62.60
68922;DHT22;55959;51.244;5.724;2024-03-08T08:27:33;7.20;62.60
68922;DHT22;55959;51.244;5.724;2024-03-08T08:29:58;7.30;62.60
68922;DHT22;55959;51.244;5.724;2024-03-08T08:32:24;7.30;62.30
68922;DHT22;55959;51.244;5.724;2024-03-08T08:34:50;7.40;62.20
68922;DHT22;55959;51.244;5.724;2024-03-08T08:37:17;7.50;62.10
68922;DHT22;55959;51.244;5.724;2024-03-08T08:39:42;7.60;61.80
68922;DHT22;55959;51.244;5.724;2024-03-08T08:42:08;7.60;61.60
68922;DHT22;55959;51.244;5.724;2024-03-08T08:44:35;7.70;61.20
68922;DHT22;55959;51.244;5.724;2024-03-08T08:47:01;7.80;61.00
68922;DHT22;55959;51.244;5.724;2024-03-08T08:49:29;7.90;61.00
68922;DHT22;55959;51.244;5.724;2024-03-08T08:51:56;7.90;60.90
68922;DHT22;55959;51.244;5.724;2024-03-08T08:54:24;8.00;60.90
68922;DHT22;55959;51.244;5.724;2024-03-08T08:56:50;8.10;60.60
68922;DHT22;55959;51.244;5.724;2024-03-08T08:59:16;8.10;60.30
68922;DHT22;55959;51.244;5.724;2024-03-08T09:01:46;8.20;60.40
68922;DHT22;55959;51.244;5.724;2024-03-08T09:04:15;8.30;60.10
68922;DHT22;55959;51.244;5.724;2024-03-08T09:06:45;8.30;59.70
68922;DHT22;55959;51.244;5.724;2024-03-08T09:09:11;8.40;60.50
68922;DHT22;55959;51.244;5.724;2024-03-08T09:11:39;8.40;59.80
68922;DHT22;55959;51.244;5.724;2024-03-08T09:14:07;8.50;59.70
68922;DHT22;55959;51.244;5.724;2024-03-08T09:16:34;8.60;59.70
68922;DHT22;55959;51.244;5.724;2024-03-08T09:19:00;8.70;59.60
68922;DHT22;55959;51.244;5.724;2024-03-08T09:21:25;8.80;59.50
68922;DHT22;55959;51.244;5.724;2024-03-08T09:23:52;8.90;59.50
68922;DHT22;55959;51.244;5.724;2024-03-08T09:26:19;8.90;58.90
68922;DHT22;55959;51.244;5.724;2024-03-08T09:28:45;9.00;58.70
68922;DHT22;55959;51.244;5.724;2024-03-08T09:31:11;9.10;58.40
68922;DHT22;55959;51.244;5.724;2024-03-08T09:33:37;9.20;58.30
68922;DHT22;55959;51.244;5.724;2024-03-08T09:36:05;9.20;57.90
68922;DHT22;55959;51.244;5.724;2024-03-08T09:38:33;9.30;57.40
68922;DHT22;55959;51.244;5.724;2024-03-08T09:41:00;9.40;57.30
68922;DHT22;55959;51.244;5.724;2024-03-08T09:43:30;9.40;57.40
68922;DHT22;55959;51.244;5.724;2024-03-08T09:45:58;9.50;56.90
68922;DHT22;55959;51.244;5.724;2024-03-08T09:48:25;9.60;56.90
68922;DHT22;55959;51.244;5.724;2024-03-08T09:50:51;9.70;57.00
68922;DHT22;55959;51.244;5.724;2024-03-08T09:53:17;9.70;56.70
68922;DHT22;55959;51.244;5.724;2024-03-08T09:55:44;9.80;56.50
68922;DHT22;55959;51.244;5.724;2024-03-08T09:58:15;9.90;56.50
68922;DHT22;55959;51.244;5.724;2024-03-08T10:01:00;10.00;55.70
68922;DHT22;55959;51.244;5.724;2024-03-08T10:03:30;10.00;55.10
68922;DHT22;55959;51.244;5.724;2024-03-08T10:05:57;10.10;55.50
68922;DHT22;55959;51.244;5.724;2024-03-08T10:08:27;10.20;55.30
68922;DHT22;55959;51.244;5.724;2024-03-08T10:10:56;10.20;55.00
68922;DHT22;55959;51.244;5.724;2024-03-08T10:13:26;10.30;54.50
68922;DHT22;55959;51.244;5.724;2024-03-08T10:15:53;10.30;54.40
68922;DHT22;55959;51.244;5.724;2024-03-08T10:18:19;10.40;54.30
68922;DHT22;55959;51.244;5.724;2024-03-08T10:20:47;10.40;54.50
68922;DHT22;55959;51.244;5.724;2024-03-08T10:23:29;10.50;54.50
68922;DHT22;55959;51.244;5.724;2024-03-08T10:25:55;10.50;53.80
68922;DHT22;55959;51.244;5.724;2024-03-08T10:28:23;10.60;54.00
68922;DHT22;55959;51.244;5.724;2024-03-08T10:30:50;10.60;53.20
68922;DHT22;55959;51.244;5.724;2024-03-08T10:33:16;10.70;53.20
68922;DHT22;55959;51.244;5.724;2024-03-08T10:35:42;10.80;53.50
68922;DHT22;55959;51.244;5.724;2024-03-08T10:38:10;10.80;52.80
68922;DHT22;55959;51.244;5.724;2024-03-08T10:40:40;10.80;53.50
68922;DHT22;55959;51.244;5.724;2024-03-08T10:43:12;10.90;52.50
68922;DHT22;55959;51.244;5.724;2024-03-08T10:45:53;10.90;52.00
68922;DHT22;55959;51.244;5.724;2024-03-08T10:48:44;10.90;51.70
68922;DHT22;55959;51.244;5.724;2024-03-08T10:51:11;11.00;52.00
68922;DHT22;55959;51.244;5.724;2024-03-08T10:53:38;11.00;52.00
68922;DHT22;55959;51.244;5.724;2024-03-08T10:56:07;11.10;52.20
68922;DHT22;55959;51.244;5.724;2024-03-08T10:58:36;11.10;52.10
68922;DHT22;55959;51.244;5.724;2024-03-08T11:01:02;11.20;52.10
68922;DHT22;55959;51.244;5.724;2024-03-08T11:06:07;11.30;51.30
68922;DHT22;55959;51.244;5.724;2024-03-08T11:08:36;11.30;51.40
68922;DHT22;55959;51.244;5.724;2024-03-08T11:11:02;11.30;51.40
68922;DHT22;55959;51.244;5.724;2024-03-08T11:13:40;11.40;51.10
68922;DHT22;55959;51.244;5.724;2024-03-08T11:16:51;11.40;51.30
68922;DHT22;55959;51.244;5.724;2024-03-08T11:21:36;11.50;51.10
68922;DHT22;55959;51.244;5.724;2024-03-08T11:24:12;11.50;51.20
68922;DHT22;55959;51.244;5.724;2024-03-08T11:26:39;11.60;50.90
68922;DHT22;55959;51.244;5.724;2024-03-08T11:32:14;11.60;50.60
68922;DHT22;55959;51.244;5.724;2024-03-08T11:34:42;11.70;49.90
68922;DHT22;55959;51.244;5.724;2024-03-08T11:37:13;11.70;50.00
68922;DHT22;55959;51.244;5.724;2024-03-08T11:39:51;11.70;50.10
68922;DHT22;55959;51.244;5.724;2024-03-08T11:42:19;11.70;49.90
68922;DHT22;55959;51.244;5.724;2024-03-08T11:44:48;11.80;50.40
68922;DHT22;55959;51.244;5.724;2024-03-08T11:47:15;11.90;50.40
68922;DHT22;55959;51.244;5.724;2024-03-08T11:49:41;11.90;50.10
68922;DHT22;55959;51.244;5.724;2024-03-08T11:52:13;12.00;50.00
68922;DHT22;55959;51.244;5.724;2024-03-08T11:54:52;12.10;50.30
68922;DHT22;55959;51.244;5.724;2024-03-08T11:57:25;12.10;50.00
68922;DHT22;55959;51.244;5.724;2024-03-08T11:59:52;12.20;49.50
68922;DHT22;55959;51.244;5.724;2024-03-08T12:02:18;12.20;49.20
68922;DHT22;55959;51.244;5.724;2024-03-08T12:04:45;12.30;48.70
68922;DHT22;55959;51.244;5.724;2024-03-08T12:07:13;12.30;48.90
68922;DHT22;55959;51.244;5.724;2024-03-08T12:09:42;12.40;49.00
68922;DHT22;55959;51.244;5.724;2024-03-08T12:12:12;12.40;49.10
68922;DHT22;55959;51.244;5.724;2024-03-08T12:14:38;12.50;49.10
68922;DHT22;55959;51.244;5.724;2024-03-08T12:17:07;12.50;48.80
68922;DHT22;55959;51.244;5.724;2024-03-08T12:19:35;12.60;48.40
68922;DHT22;55959;51.244;5.724;2024-03-08T12:22:09;12.70;48.50
68922;DHT22;55959;51.244;5.724;2024-03-08T12:24:35;12.70;48.30
68922;DHT22;55959;51.244;5.724;2024-03-08T12:27:17;12.80;48.90
68922;DHT22;55959;51.244;5.724;2024-03-08T12:29:44;12.80;48.10
68922;DHT22;55959;51.244;5.724;2024-03-08T12:32:10;12.90;48.10
68922;DHT22;55959;51.244;5.724;2024-03-08T12:34:37;12.90;48.00
68922;DHT22;55959;51.244;5.724;2024-03-08T12:37:03;13.00;47.70
68922;DHT22;55959;51.244;5.724;2024-03-08T12:39:32;13.00;47.80
68922;DHT22;55959;51.244;5.724;2024-03-08T12:41:58;13.10;47.90
68922;DHT22;55959;51.244;5.724;2024-03-08T12:44:25;13.20;47.80
68922;DHT22;55959;51.244;5.724;2024-03-08T12:46:51;13.20;47.50
68922;DHT22;55959;51.244;5.724;2024-03-08T12:49:19;13.30;46.90
68922;DHT22;55959;51.244;5.724;2024-03-08T12:51:47;13.30;47.00
68922;DHT22;55959;51.244;5.724;2024-03-08T12:54:13;13.30;47.10
68922;DHT22;55959;51.244;5.724;2024-03-08T12:56:39;13.40;47.10
68922;DHT22;55959;51.244;5.724;2024-03-08T12:59:08;13.50;46.60
68922;DHT22;55959;51.244;5.724;2024-03-08T13:01:35;13.50;46.20
68922;DHT22;55959;51.244;5.724;2024-03-08T13:04:03;13.60;46.10
68922;DHT22;55959;51.244;5.724;2024-03-08T13:06:32;13.60;45.80
68922;DHT22;55959;51.244;5.724;2024-03-08T13:08:58;13.60;45.60
68922;DHT22;55959;51.244;5.724;2024-03-08T13:11:26;13.70;45.60
68922;DHT22;55959;51.244;5.724;2024-03-08T13:13:52;13.70;45.50
68922;DHT22;55959;51.244;5.724;2024-03-08T13:16:18;13.70;45.20
68922;DHT22;55959;51.244;5.724;2024-03-08T13:18:45;13.70;45.60
68922;DHT22;55959;51.244;5.724;2024-03-08T13:21:14;13.70;46.00
68922;DHT22;55959;51.244;5.724;2024-03-08T13:23:43;13.80;46.10
68922;DHT22;55959;51.244;5.724;2024-03-08T13:26:15;13.80;45.70
68922;DHT22;55959;51.244;5.724;2024-03-08T13:28:49;13.90;45.10
68922;DHT22;55959;51.244;5.724;2024-03-08T13:31:22;13.90;45.20
68922;DHT22;55959;51.244;5.724;2024-03-08T13:33:48;13.90;45.20
68922;DHT22;55959;51.244;5.724;2024-03-08T13:36:15;14.00;45.20
68922;DHT22;55959;51.244;5.724;2024-03-08T13:38:45;14.00;45.20
68922;DHT22;55959;51.244;5.724;2024-03-08T13:41:12;14.10;45.20
68922;DHT22;55959;51.244;5.724;2024-03-08T13:43:40;14.10;45.00
68922;DHT22;55959;51.244;5.724;2024-03-08T13:46:07;14.20;44.80
68922;DHT22;55959;51.244;5.724;2024-03-08T13:48:33;14.20;44.60
68922;DHT22;55959;51.244;5.724;2024-03-08T13:50:59;14.20;44.90
68922;DHT22;55959;51.244;5.724;2024-03-08T13:53:26;14.30;44.80
68922;DHT22;55959;51.244;5.724;2024-03-08T13:55:52;14.30;44.70
68922;DHT22;55959;51.244;5.724;2024-03-08T13:58:18;14.30;44.40
68922;DHT22;55959;51.244;5.724;2024-03-08T14:00:45;14.40;43.90
68922;DHT22;55959;51.244;5.724;2024-03-08T14:03:13;14.40;44.10
68922;DHT22;55959;51.244;5.724;2024-03-08T14:05:39;14.40;43.90
68922;DHT22;55959;51.244;5.724;2024-03-08T14:08:07;14.40;44.10
68922;DHT22;55959;51.244;5.724;2024-03-08T14:10:33;14.40;44.20
68922;DHT22;55959;51.244;5.724;2024-03-08T14:13:00;14.40;44.10
68922;DHT22;55959;51.244;5.724;2024-03-08T14:15:28;14.40;44.30
68922;DHT22;55959;51.244;5.724;2024-03-08T14:17:55;14.50;44.50
68922;DHT22;55959;51.244;5.724;2024-03-08T14:20:22;14.50;43.60
68922;DHT22;55959;51.244;5.724;2024-03-08T14:22:55;14.50;42.90
68922;DHT22;55959;51.244;5.724;2024-03-08T14:25:21;14.50;43.50
68922;DHT22;55959;51.244;5.724;2024-03-08T14:27:49;14.50;44.00
68922;DHT22;55959;51.244;5.724;2024-03-08T14:30:19;14.60;43.20
68922;DHT22;55959;51.244;5.724;2024-03-08T14:32:58;14.60;43.30
68922;DHT22;55959;51.244;5.724;2024-03-08T14:35:27;14.60;43.20
68922;DHT22;55959;51.244;5.724;2024-03-08T14:37:55;14.60;43.00
68922;DHT22;55959;51.244;5.724;2024-03-08T14:40:23;14.60;43.10
68922;DHT22;55959;51.244;5.724;2024-03-08T14:42:52;14.60;43.40
68922;DHT22;55959;51.244;5.724;2024-03-08T14:45:19;14.70;43.40
68922;DHT22;55959;51.244;5.724;2024-03-08T14:47:48;14.70;43.50
68922;DHT22;55959;51.244;5.724;2024-03-08T14:50:20;14.70;44.30
68922;DHT22;55959;51.244;5.724;2024-03-08T14:52:46;14.80;43.70
68922;DHT22;55959;51.244;5.724;2024-03-08T14:55:22;14.80;42.90
68922;DHT22;55959;51.244;5.724;2024-03-08T14:57:49;14.80;42.80
68922;DHT22;55959;51.244;5.724;2024-03-08T15:00:20;14.90;42.90
68922;DHT22;55959;51.244;5.724;2024-03-08T15:02:55;14.90;42.50
68922;DHT22;55959;51.244;5.724;2024-03-08T15:05:22;14.90;42.80
68922;DHT22;55959;51.244;5.724;2024-03-08T15:07:57;14.90;43.00
68922;DHT22;55959;51.244;5.724;2024-03-08T15:10:26;15.00;42.80
68922;DHT22;55959;51.244;5.724;2024-03-08T15:12:54;15.00;42.60
68922;DHT22;55959;51.244;5.724;2024-03-08T15:15:21;15.00;42.30
68922;DHT22;55959;51.244;5.724;2024-03-08T15:17:50;15.00;42.30
68922;DHT22;55959;51.244;5.724;2024-03-08T15:20:16;15.00;42.40
68922;DHT22;55959;51.244;5.724;2024-03-08T15:22:49;15.10;42.40
68922;DHT22;55959;51.244;5.724;2024-03-08T15:25:16;15.10;42.30
68922;DHT22;55959;51.244;5.724;2024-03-08T15:27:54;15.10;41.80
68922;DHT22;55959;51.244;5.724;2024-03-08T15:30:21;15.10;41.90
68922;DHT22;55959;51.244;5.724;2024-03-08T15:32:57;15.10;42.00
68922;DHT22;55959;51.244;5.724;2024-03-08T15:35:25;15.10;41.50
68922;DHT22;55959;51.244;5.724;2024-03-08T15:37:51;15.20;41.50
68922;DHT22;55959;51.244;5.724;2024-03-08T15:40:18;15.10;41.60
68922;DHT22;55959;51.244;5.724;2024-03-08T15:42:56;15.10;41.80
68922;DHT22;55959;51.244;5.724;2024-03-08T15:45:23;15.20;41.60
68922;DHT22;55959;51.244;5.724;2024-03-08T15:47:50;15.10;41.10
68922;DHT22;55959;51.244;5.724;2024-03-08T15:50:16;15.10;41.00
68922;DHT22;55959;51.244;5.724;2024-03-08T15:52:45;15.10;40.80
68922;DHT22;55959;51.244;5.724;2024-03-08T15:55:16;15.10;41.00